Time;durP1;ratioP1;P1;durP2;ratioP2;P2;SDS_P1;SDS_P2;PMS_P1;PMS_P2;Temp;Humidity;BMP_temperature;BMP_pressure;BME280_temperature;BME280_humidity;BME280_pressure;Samples;Min_cycle;Max_cycle;Signal;HPM_P1;HPM_P2
2021/09/05 00:02:53;;;;;;;2.40;1.67;;;;;;;14.99;77.72;92792.06;4833846;29;20064;-92
2021/09/05 00:05:48;;;;;;;2.03;1.42;;;;;;;15.20;77.41;92823.16;4843558;29;20057;-91
2021/09/05 00:09:40;;;;;;;3.67;1.85;;;;;;;15.17;76.98;92829.78;4849156;29;20499;-92
2021/09/05 00:11:57;;;;;;;2.38;1.55;;;;;;;14.84;76.88;92795.13;4848759;29;20500;-91
2021/09/05 00:14:49;;;;;;;3.25;1.92;;;;;;;14.80;77.13;92793.41;4836407;29;20136;-94
2021/09/05 00:18:06;;;;;;;3.10;2.05;;;;;;;14.80;76.95;92799.44;4855658;29;20053;-94
2021/09/05 00:21:06;;;;;;;3.05;1.90;;;;;;;15.10;76.94;92861.09;4855577;29;20076;-93
2021/09/05 00:23:32;;;;;;;4.70;1.98;;;;;;;15.04;76.83;92856.25;4858298;29;20133;-93
2021/09/05 00:25:57;;;;;;;3.70;2.10;;;;;;;14.98;76.90;92840.59;4844536;29;20065;-92
2021/09/05 00:28:23;;;;;;;2.55;1.60;;;;;;;15.00;78.18;92856.09;4808649;29;20050;-93
2021/09/05 00:30:49;;;;;;;3.85;2.10;;;;;;;14.94;78.43;92852.03;4808643;29;20058;-92
2021/09/05 00:33:14;;;;;;;3.17;1.95;;;;;;;14.64;78.66;92808.81;4808876;29;20050;-92
2021/09/05 00:35:40;;;;;;;4.85;1.98;;;;;;;14.97;78.48;92859.34;4810101;29;20400;-93
2021/09/05 00:38:06;;;;;;;2.83;1.98;;;;;;;14.93;78.36;92847.88;4825576;29;20049;-91
2021/09/05 00:40:32;;;;;;;3.72;1.98;;;;;;;14.83;78.42;92834.94;4820782;29;20042;-92
2021/09/05 00:42:57;;;;;;;1.95;1.48;;;;;;;14.95;78.30;92853.59;4811893;29;20457;-92
2021/09/05 00:45:23;;;;;;;2.72;1.63;;;;;;;14.76;78.18;92824.84;4809763;29;20054;-91
2021/09/05 00:47:51;;;;;;;2.95;1.80;;;;;;;14.92;78.25;92854.97;4809510;29;20085;-93
2021/09/05 00:50:17;;;;;;;3.60;2.08;;;;;;;14.89;78.69;92854.81;4823928;29;20060;-93
2021/09/05 00:52:43;;;;;;;3.65;2.33;;;;;;;14.77;79.47;92832.44;4823519;29;20050;-93
2021/09/05 00:55:09;;;;;;;2.72;1.90;;;;;;;14.89;79.52;92854.81;4810276;29;20046;-91
2021/09/05 00:57:38;;;;;;;3.53;2.00;;;;;;;14.82;79.40;92838.66;4809490;29;20046;-92
2021/09/05 01:00:07;;;;;;;6.25;2.40;;;;;;;14.91;79.19;92856.06;4804837;29;20168;-92
2021/09/05 01:02:35;;;;;;;3.88;2.30;;;;;;;14.91;79.36;92852.66;4809563;29;21950;-92
2021/09/05 01:05:00;;;;;;;3.58;2.25;;;;;;;14.89;79.31;92852.97;4777321;29;20099;-92
2021/09/05 01:07:28;;;;;;;3.65;2.38;;;;;;;14.77;79.78;92829.81;4790678;29;20060;-93
2021/09/05 01:09:55;;;;;;;5.25;3.15;;;;;;;14.82;80.53;92828.13;4810468;29;20438;-92
2021/09/05 01:12:21;;;;;;;2.75;1.90;;;;;;;14.94;81.30;92846.78;4809029;29;20072;-92
2021/09/05 01:14:46;;;;;;;3.38;2.42;;;;;;;14.87;81.40;92835.91;4803214;29;20054;-92
2021/09/05 01:17:12;;;;;;;4.53;2.28;;;;;;;14.95;81.08;92854.38;4777000;29;20505;-93
2021/09/05 01:19:46;;;;;;;4.43;2.72;;;;;;;14.97;80.89;92851.44;4797211;29;20098;-91
2021/09/05 01:22:47;;;;;;;4.20;2.40;;;;;;;14.96;80.69;92855.16;4778381;29;20406;-92
2021/09/05 01:25:18;;;;;;;3.40;2.38;;;;;;;14.95;80.88;92858.84;4804343;29;20126;-91
2021/09/05 01:27:53;;;;;;;4.40;2.72;;;;;;;14.83;80.96;92840.97;4839963;29;20381;-94
2021/09/05 01:30:42;;;;;;;5.32;2.92;;;;;;;14.87;80.77;92854.34;4789548;29;20118;-94
2021/09/05 01:33:26;;;;;;;3.00;2.00;;;;;;;14.82;80.93;92851.84;4832401;29;20060;-92
2021/09/05 01:36:10;;;;;;;4.93;2.72;;;;;;;14.82;81.10;92860.53;4843945;29;20175;-92
2021/09/05 01:38:59;;;;;;;3.88;2.53;;;;;;;14.83;81.41;92861.28;4832625;29;20072;-94
2021/09/05 01:41:51;;;;;;;4.20;2.50;;;;;;;14.64;81.39;92848.34;4824008;29;20057;-93
2021/09/05 01:44:38;;;;;;;3.78;2.70;;;;;;;14.62;80.90;92843.38;4858735;29;20097;-94
2021/09/05 01:47:26;;;;;;;3.88;2.75;;;;;;;14.71;81.22;92869.75;4837289;29;20069;-93
2021/09/05 01:50:26;;;;;;;5.60;2.50;;;;;;;14.69;81.82;92869.28;4870191;29;20071;-91
2021/09/05 01:53:27;;;;;;;5.40;2.35;;;;;;;14.68;82.35;92865.09;4781915;30;20097;-92
2021/09/05 01:56:28;;;;;;;4.65;2.60;;;;;;;14.60;81.50;92861.34;4832742;29;20416;-91
2021/09/05 01:59:22;;;;;;;3.70;2.30;;;;;;;14.58;80.91;92872.16;4838954;29;20218;-92
2021/09/05 02:02:06;;;;;;;3.03;1.90;;;;;;;14.54;80.54;92870.41;4852985;29;20057;-91
2021/09/05 02:05:01;;;;;;;2.60;1.85;;;;;;;14.43;80.03;92863.81;4858141;29;20233;-91
2021/09/05 02:07:49;;;;;;;3.30;1.58;;;;;;;14.36;79.91;92865.03;4848523;29;20136;-93
2021/09/05 02:10:37;;;;;;;2.63;1.70;;;;;;;14.42;79.76;92872.81;4821414;29;20084;-92
2021/09/05 02:13:20;;;;;;;2.47;1.70;;;;;;;14.25;79.05;92852.41;4831387;29;20117;-90
2021/09/05 02:16:13;;;;;;;3.97;1.73;;;;;;;14.40;79.62;92881.00;4859124;29;20065;-92
2021/09/05 02:19:02;;;;;;;2.10;1.50;;;;;;;14.31;79.94;92872.28;4827983;29;20057;-91
2021/09/05 02:21:54;;;;;;;3.35;2.17;;;;;;;14.30;79.68;92881.25;4852599;29;20050;-91
2021/09/05 02:24:38;;;;;;;3.63;2.20;;;;;;;14.26;79.75;92886.34;4839819;29;20057;-91
2021/09/05 02:27:27;;;;;;;3.78;1.98;;;;;;;14.18;79.49;92884.41;4816195;29;20074;-91
2021/09/05 02:30:11;;;;;;;3.15;1.83;;;;;;;14.13;79.51;92884.53;4856534;29;20586;-92
2021/09/05 02:32:57;;;;;;;3.15;1.80;;;;;;;14.12;79.12;92891.66;4856878;29;20081;-92
2021/09/05 02:35:42;;;;;;;3.10;1.70;;;;;;;13.90;79.39;92852.91;4842578;29;20050;-91
2021/09/05 02:38:46;;;;;;;3.05;1.73;;;;;;;14.08;79.55;92880.16;4832967;29;20053;-93
2021/09/05 02:41:37;;;;;;;2.80;1.70;;;;;;;14.11;79.97;92895.34;4844893;29;20526;-91
2021/09/05 02:44:35;;;;;;;2.45;1.55;;;;;;;14.12;79.65;92888.25;4810947;29;20053;-90
2021/09/05 02:47:19;;;;;;;1.98;1.52;;;;;;;13.99;79.45;92878.53;4840296;29;20570;-92
2021/09/05 02:50:06;;;;;;;3.00;1.80;;;;;;;13.93;79.21;92883.88;4839678;29;20044;-92
2021/09/05 02:52:55;;;;;;;3.40;1.98;;;;;;;13.98;79.89;92885.63;4819053;29;20153;-92
2021/09/05 02:55:41;;;;;;;2.03;1.48;;;;;;;13.97;79.63;92891.22;4860118;29;20052;-92
2021/09/05 02:58:33;;;;;;;;;;;;;;;13.97;79.80;92889.34;4850320;29;20170;-93
2021/09/05 03:01:29;;;;;;;3.47;2.03;;;;;;;13.93;80.03;92889.16;4839323;29;19931;-92
2021/09/05 03:04:23;;;;;;;5.93;1.70;;;;;;;13.83;80.55;92880.72;4849444;29;20148;-92
2021/09/05 03:07:07;;;;;;;3.17;2.22;;;;;;;13.78;80.70;92880.81;4847429;29;20060;-92
2021/09/05 03:10:06;;;;;;;3.53;2.00;;;;;;;13.73;81.17;92885.13;4827169;29;20432;-92
2021/09/05 03:12:34;;;;;;;2.33;1.63;;;;;;;13.78;81.55;92886.88;4845480;29;20122;-91
2021/09/05 03:15:23;;;;;;;3.42;2.00;;;;;;;13.74;81.97;92885.91;4855054;29;20042;-92
2021/09/05 03:18:24;;;;;;;3.70;1.92;;;;;;;13.63;81.65;92874.81;4834572;29;20518;-91
2021/09/05 03:21:22;;;;;;;3.53;2.22;;;;;;;13.66;81.62;92884.72;4841596;29;20106;-91
2021/09/05 03:24:13;;;;;;;3.25;2.08;;;;;;;13.69;81.70;92888.63;4855847;29;20064;-92
2021/09/05 03:27:17;;;;;;;2.65;1.58;;;;;;;13.71;82.29;92882.00;4839914;29;20443;-90
2021/09/05 03:30:05;;;;;;;4.90;1.88;;;;;;;13.68;81.94;92882.59;4852174;29;20057;-90
2021/09/05 03:33:09;;;;;;;4.07;2.25;;;;;;;13.57;82.66;92872.56;4814702;29;20528;-93
2021/09/05 03:36:08;;;;;;;6.13;2.85;;;;;;;13.68;82.51;92889.69;4816142;29;20085;-92
2021/09/05 03:38:49;;;;;;;3.17;2.10;;;;;;;13.65;82.14;92877.91;4849219;29;20094;-92
2021/09/05 03:41:34;;;;;;;3.20;1.67;;;;;;;13.76;81.50;92873.22;4844169;29;20061;-92
2021/09/05 03:44:34;;;;;;;2.72;1.67;;;;;;;13.73;81.69;92887.75;4859585;29;20053;-91
2021/09/05 03:47:32;;;;;;;2.47;1.55;;;;;;;13.68;82.21;92879.94;4821165;29;20061;-92
2021/09/05 03:50:23;;;;;;;3.00;1.75;;;;;;;13.60;82.48;92871.97;4837938;29;20126;-92
2021/09/05 03:52:50;;;;;;;3.50;2.42;;;;;;;13.57;82.84;92875.97;4854351;29;20142;-91
2021/09/05 03:55:20;;;;;;;5.57;1.90;;;;;;;13.64;82.71;92886.09;4841491;29;20056;-92
2021/09/05 03:57:47;;;;;;;3.75;2.10;;;;;;;13.60;82.72;92885.94;4829664;29;20137;-92
2021/09/05 04:00:13;;;;;;;2.78;1.83;;;;;;;13.48;82.92;92875.13;4839355;29;20038;-92
2021/09/05 04:02:43;;;;;;;3.65;2.33;;;;;;;13.51;83.16;92877.94;4868115;29;20050;-92
2021/09/05 04:05:10;;;;;;;4.38;2.38;;;;;;;13.38;83.24;92865.59;4811514;29;20083;-92
2021/09/05 04:07:40;;;;;;;5.95;2.75;;;;;;;13.54;83.33;92887.88;4830721;29;20049;-93
2021/09/05 04:10:09;;;;;;;4.40;2.47;;;;;;;13.48;83.56;92873.25;4829416;29;20057;-91
2021/09/05 04:12:42;;;;;;;4.10;2.70;;;;;;;13.46;83.76;92875.41;4828016;29;20048;-92
2021/09/05 04:15:10;;;;;;;3.78;2.47;;;;;;;13.57;83.80;92894.38;4873308;29;20045;-91
2021/09/05 04:17:36;;;;;;;6.47;3.72;;;;;;;13.51;83.85;92888.47;4859467;29;20064;-91
2021/09/05 04:20:03;;;;;;;7.25;3.70;;;;;;;13.47;84.02;92874.34;4846083;29;20042;-93
2021/09/05 04:22:29;;;;;;;7.72;2.97;;;;;;;13.58;83.86;92892.53;4872509;29;20049;-93
2021/09/05 04:24:55;;;;;;;5.22;3.15;;;;;;;13.50;84.38;92886.91;4858785;29;20514;-91
2021/09/05 04:27:20;;;;;;;4.28;2.67;;;;;;;13.58;84.66;92898.59;4858379;29;20519;-93
2021/09/05 04:29:46;;;;;;;5.72;3.42;;;;;;;13.59;84.68;92902.75;4812601;29;20045;-92
2021/09/05 04:32:12;;;;;;;3.58;2.42;;;;;;;13.51;84.55;92891.09;4842869;29;20484;-92
2021/09/05 04:34:37;;;;;;;3.75;2.38;;;;;;;13.56;84.72;92899.97;4828107;29;20563;-91
2021/09/05 04:37:03;;;;;;;5.18;2.65;;;;;;;13.56;84.66;92902.59;4838380;29;20393;-91
2021/09/05 04:39:29;;;;;;;3.47;2.30;;;;;;;13.49;84.92;92893.25;4846462;29;20057;-93
2021/09/05 04:41:55;;;;;;;6.32;2.35;;;;;;;13.52;84.68;92897.91;4843044;29;20052;-93
2021/09/05 04:44:20;;;;;;;4.97;2.42;;;;;;;13.58;84.63;92913.56;4858366;29;20049;-93
2021/09/05 04:46:46;;;;;;;4.25;2.28;;;;;;;13.57;84.13;92914.66;4827711;29;20049;-92
2021/09/05 04:49:14;;;;;;;3.75;2.13;;;;;;;13.58;84.07;92913.56;4825231;29;20058;-92
2021/09/05 04:51:42;;;;;;;5.18;2.38;;;;;;;13.50;83.92;92899.28;4827605;29;20093;-91
2021/09/05 04:54:09;;;;;;;3.92;2.47;;;;;;;13.56;84.10;92918.38;4850545;29;20164;-92
2021/09/05 04:56:35;;;;;;;4.65;2.13;;;;;;;13.58;83.71;92924.09;4829816;29;20057;-92
2021/09/05 04:59:01;;;;;;;4.18;2.47;;;;;;;13.54;84.05;92916.81;4840431;29;20450;-92
2021/09/05 05:01:26;;;;;;;2.50;1.77;;;;;;;13.58;84.07;92918.84;4833351;29;20098;-92
2021/09/05 05:03:52;;;;;;;3.72;2.45;;;;;;;13.60;83.95;92921.94;4842947;29;20065;-93
2021/09/05 05:06:17;;;;;;;3.65;2.13;;;;;;;13.57;83.95;92923.31;4858521;29;20118;-92
2021/09/05 05:08:43;;;;;;;4.90;2.50;;;;;;;13.64;83.99;92920.28;4844967;29;20480;-92
2021/09/05 05:11:13;;;;;;;3.20;1.75;;;;;;;13.65;83.78;92922.66;4857835;29;20061;-92
2021/09/05 05:13:39;;;;;;;3.08;2.13;;;;;;;13.73;83.34;92926.41;4857493;29;20057;-92
2021/09/05 05:16:06;;;;;;;3.75;2.08;;;;;;;13.73;82.99;92924.59;4841046;29;20057;-92
2021/09/05 05:18:31;;;;;;;3.58;2.20;;;;;;;13.76;82.86;92920.59;4840004;29;20408;-92
2021/09/05 05:20:58;;;;;;;3.45;2.17;;;;;;;13.76;82.43;92915.31;4826389;29;20042;-92
2021/09/05 05:23:25;;;;;;;3.60;2.08;;;;;;;13.85;82.01;92921.44;4837752;29;20065;-91
2021/09/05 05:25:54;;;;;;;3.35;2.05;;;;;;;13.95;81.87;92928.34;4856293;29;20038;-91
2021/09/05 05:28:19;;;;;;;5.10;2.42;;;;;;;14.05;81.58;92922.88;4847727;29;20065;-92
2021/09/05 05:30:50;;;;;;;3.25;2.17;;;;;;;14.26;81.21;92943.50;4852869;29;20079;-93
2021/09/05 05:33:16;;;;;;;5.05;2.70;;;;;;;14.25;80.72;92926.91;4858172;29;20050;-92
2021/09/05 05:35:41;;;;;;;3.33;2.17;;;;;;;14.44;80.23;92939.13;4826349;29;20456;-92
2021/09/05 05:38:07;;;;;;;3.17;1.80;;;;;;;14.57;79.91;92943.59;4855890;29;20131;-93
2021/09/05 05:40:33;;;;;;;3.25;2.00;;;;;;;14.58;79.75;92924.06;4826259;29;20101;-92
2021/09/05 05:43:02;;;;;;;5.00;2.45;;;;;;;14.83;79.33;92940.34;4858022;29;20093;-92
2021/09/05 05:45:28;;;;;;;3.15;1.80;;;;;;;14.97;78.98;92947.13;4857867;29;20128;-92
2021/09/05 05:47:54;;;;;;;4.75;3.00;;;;;;;15.12;78.67;92942.53;4858285;29;20097;-92
2021/09/05 05:50:20;;;;;;;2.50;1.92;;;;;;;15.30;78.26;92951.31;4856159;29;20049;-91
2021/09/05 05:52:46;;;;;;;3.60;2.05;;;;;;;15.43;77.66;92945.16;4858340;29;20560;-93
2021/09/05 05:55:12;;;;;;;3.67;2.30;;;;;;;15.56;76.87;92946.16;4826645;29;20033;-93
2021/09/05 05:57:38;;;;;;;2.78;1.85;;;;;;;15.73;76.62;92945.44;4818585;29;20057;-92
2021/09/05 06:00:07;;;;;;;3.00;1.98;;;;;;;15.93;76.09;92946.75;4829511;29;20516;-93
2021/09/05 06:02:38;;;;;;;3.38;1.88;;;;;;;16.15;75.13;92956.41;4850275;29;20121;-91
2021/09/05 06:05:04;;;;;;;7.05;2.40;;;;;;;16.34;74.56;92956.13;4838596;29;20128;-92
2021/09/05 06:07:30;;;;;;;3.05;1.92;;;;;;;17.06;73.63;92946.75;4841786;29;20809;-95
2021/09/05 06:09:56;;;;;;;2.63;1.95;;;;;;;19.65;65.72;92947.16;4855985;29;20147;-95
2021/09/05 06:12:24;;;;;;;3.90;2.47;;;;;;;22.02;58.31;92951.00;4827907;29;20053;-95
2021/09/05 06:14:50;;;;;;;4.45;1.90;;;;;;;23.25;52.04;92941.78;4859488;29;20046;-95
2021/09/05 06:17:16;;;;;;;3.22;1.75;;;;;;;23.72;50.86;92939.91;4841708;29;20279;-95
2021/09/05 06:19:41;;;;;;;3.00;2.08;;;;;;;25.01;47.73;92947.06;4859547;29;20393;-95
2021/09/05 06:22:07;;;;;;;3.67;2.25;;;;;;;25.69;45.91;92953.13;4843968;29;20120;-94
2021/09/05 06:24:33;;;;;;;4.32;2.28;;;;;;;26.32;44.07;92944.09;4836875;29;20057;-94
2021/09/05 06:27:16;;;;;;;3.38;2.05;;;;;;;27.86;42.14;92946.59;4836911;29;20368;-95
2021/09/05 06:29:42;;;;;;;4.28;2.42;;;;;;;28.57;40.62;92950.41;4846159;29;20511;-92
2021/09/05 06:32:08;;;;;;;3.65;2.20;;;;;;;29.23;37.41;92945.22;4860629;29;20037;-95
2021/09/05 06:39:18;;;;;;;;;;;;;;;;;;;;;
2021/09/05 06:42:10;;;;;;;4.07;2.30;;;;;;;28.45;38.83;92903.88;4808912;29;20050;-95
2021/09/05 06:45:28;;;;;;;3.85;2.10;;;;;;;28.06;40.96;92913.94;4827785;29;20056;-93
2021/09/05 07:01:57;;;;;;;;;;;;;;;;;;;;;
2021/09/05 07:05:10;;;;;;;4.95;2.63;;;;;;;32.25;32.74;92951.00;4876347;29;20136;-94
2021/09/05 07:08:19;;;;;;;;;;;;;;;;;;;;;
2021/09/05 07:11:43;;;;;;;;;;;;;;;;;;;;;
2021/09/05 07:18:46;;;;;;;4.65;2.33;;;;;;;26.31;45.07;92961.31;4830795;29;20057;-92
2021/09/05 07:22:02;;;;;;;;;;;;;;;;;;;;;
2021/09/05 07:25:31;;;;;;;;;;;;;;;;;;;;;
2021/09/05 07:28:48;;;;;;;4.07;2.25;;;;;;;23.20;53.00;92971.44;4840276;29;20556;-93
2021/09/05 07:32:01;;;;;;;3.80;2.40;;;;;;;22.18;56.71;92935.03;4806756;29;20058;-92
2021/09/05 07:38:31;;;;;;;4.00;2.20;;;;;;;20.83;61.31;92928.66;4814346;29;20058;-91
2021/09/05 07:41:14;;;;;;;;;;;;;;;;;;;;;
2021/09/05 07:43:41;;;;;;;3.00;1.90;;;;;;;20.10;63.40;92953.50;4802784;29;20058;-89
2021/09/05 07:46:30;;;;;;;3.88;1.90;;;;;;;20.37;62.60;92936.06;4821243;29;20050;-90
2021/09/05 07:49:13;;;;;;;5.55;2.28;;;;;;;20.74;62.30;92936.78;4798403;29;20114;-90
2021/09/05 07:51:54;;;;;;;2.95;1.73;;;;;;;21.19;60.97;92956.22;4826110;29;20137;-91
2021/09/05 07:54:31;;;;;;;2.58;1.67;;;;;;;21.23;60.91;92983.69;4799900;29;20124;-90
2021/09/05 07:57:04;;;;;;;3.03;1.87;;;;;;;20.59;61.37;92935.59;4808349;29;20053;-90
2021/09/05 07:59:45;;;;;;;4.20;2.40;;;;;;;21.07;60.98;92969.56;4792855;29;20050;-90
2021/09/05 08:02:27;;;;;;;2.75;1.73;;;;;;;20.99;60.76;92942.78;4793883;29;20515;-91
2021/09/05 08:05:23;;;;;;;5.35;2.20;;;;;;;20.51;61.99;92944.47;4824166;29;20050;-91
2021/09/05 08:07:59;;;;;;;3.63;2.03;;;;;;;20.63;63.03;92959.66;4832805;29;20046;-89
2021/09/05 08:10:34;;;;;;;4.10;2.10;;;;;;;20.69;62.60;92953.00;4806836;29;20050;-91
2021/09/05 08:13:16;;;;;;;3.28;2.03;;;;;;;20.87;61.43;92950.03;4795889;29;20049;-91
2021/09/05 08:16:00;;;;;;;2.10;1.48;;;;;;;20.35;63.16;92954.25;4821902;29;20053;-89
2021/09/05 08:18:50;;;;;;;;;;;;;;;;;;;;;
2021/09/05 08:21:24;;;;;;;3.63;2.03;;;;;;;21.50;60.83;93018.66;4824770;29;20134;-91
2021/09/05 08:24:06;;;;;;;4.10;2.25;;;;;;;21.34;61.56;92968.75;4825993;29;20062;-90
2021/09/05 08:27:05;;;;;;;;;;;;;;;;;;;;;
2021/09/05 08:30:00;;;;;;;;;;;;;;;;;;;;;
2021/09/05 08:32:33;;;;;;;3.35;2.22;;;;;;;20.77;62.83;92972.56;4859947;29;20437;-90
2021/09/05 08:35:12;;;;;;;;;;;;;;;;;;;;;
2021/09/05 08:37:52;;;;;;;3.97;2.20;;;;;;;21.26;59.96;92977.69;4873445;29;20140;-90
2021/09/05 08:41:08;;;;;;;3.78;2.33;;;;;;;20.57;62.55;92974.28;4846436;29;20050;-93
2021/09/05 08:48:00;;;;;;;4.20;2.30;;;;;;;20.41;63.58;92966.19;4845462;29;20067;-93
2021/09/05 08:50:42;;;;;;;3.38;2.00;;;;;;;20.10;63.51;92967.56;4870998;29;20616;-93
2021/09/05 09:01:10;;;;;;;;;;;;;;;;;;;;;
2021/09/05 09:05:10;;;;;;;;;;;;;;;;;;;;;
2021/09/05 09:09:05;;;;;;;;;;;;;;;;;;;;;
2021/09/05 09:21:23;;;;;;;;;;;;;;;;;;;;;
2021/09/05 09:32:09;;;;;;;3.67;2.45;;;;;;;20.60;63.04;93005.50;4718834;30;20781;-92
2021/09/05 09:39:48;;;;;;;3.42;2.13;;;;;;;21.33;60.90;93030.38;4712332;30;20612;-94
2021/09/05 09:42:42;;;;;;;3.75;2.10;;;;;;;21.18;58.43;93043.28;4706899;30;20083;-94
2021/09/05 09:46:27;;;;;;;5.45;2.42;;;;;;;21.27;58.43;93021.06;4782278;29;20065;-94
2021/09/05 09:53:20;;;;;;;;;;;;;;;;;;;;;
2021/09/05 10:08:19;;;;;;;;;;;;;;;;;;;;;
2021/09/05 10:15:50;;;;;;;;;;;;;;;;;;;;;
2021/09/05 10:30:38;;;;;;;4.40;2.20;;;;;;;22.21;56.75;93035.63;4752599;30;20044;-95
2021/09/05 10:42:12;;;;;;;;;;;;;;;;;;;;;
2021/09/05 11:05:44;;;;;;;;;;;;;;;;;;;;;
2021/09/05 11:08:45;;;;;;;;;;;;;;;;;;;;;
2021/09/05 11:12:10;;;;;;;;;;;;;;;;;;;;;
2021/09/05 11:15:29;;;;;;;;;;;;;;;;;;;;;
2021/09/05 11:19:22;;;;;;;4.07;2.65;;;;;;;21.76;58.27;93018.19;4767325;29;20105;-89
2021/09/05 11:22:39;;;;;;;;;;;;;;;;;;;;;
2021/09/05 11:25:12;;;;;;;4.88;2.92;;;;;;;22.25;56.66;93033.84;4824440;29;20393;-89
2021/09/05 11:28:24;;;;;;;9.20;2.90;;;;;;;22.29;56.61;92978.72;4823233;29;20396;-88
2021/09/05 11:31:18;;;;;;;2.92;1.75;;;;;;;22.35;56.50;93005.88;4860266;29;20064;-89
2021/09/05 11:37:15;;;;;;;4.55;2.17;;;;;;;22.65;52.74;92984.81;4835743;29;20057;-90
2021/09/05 11:40:05;;;;;;;;;;;;;;;;;;;;;
2021/09/05 11:42:54;;;;;;;5.15;3.17;;;;;;;22.33;53.89;92968.88;4851538;29;20052;-88
2021/09/05 11:45:59;;;;;;;6.32;3.17;;;;;;;22.70;53.78;93010.44;4860399;29;20067;-89
2021/09/05 11:52:59;;;;;;;4.00;2.63;;;;;;;23.02;54.33;93022.59;4858548;29;20488;-90
2021/09/05 11:55:41;;;;;;;2.78;1.75;;;;;;;22.27;53.15;92996.16;4857388;29;20457;-89
2021/09/05 11:58:45;;;;;;;4.63;2.00;;;;;;;21.79;55.65;92990.84;4857498;29;20422;-90
2021/09/05 12:02:07;;;;;;;4.35;2.35;;;;;;;22.35;54.53;92993.31;4857181;29;20042;-90
2021/09/05 12:04:54;;;;;;;;;;;;;;;;;;;;;
2021/09/05 12:08:03;;;;;;;4.20;2.90;;;;;;;22.73;52.53;92986.50;4847678;29;20069;-89
2021/09/05 12:11:25;;;;;;;7.57;3.75;;;;;;;22.51;54.85;92985.28;4841863;29;20053;-88
2021/09/05 12:14:31;;;;;;;;;;;;;;;;;;;;;
2021/09/05 12:17:50;;;;;;;3.72;2.13;;;;;;;22.37;55.08;93023.06;4853409;29;20049;-89
2021/09/05 12:20:38;;;;;;;3.75;2.38;;;;;;;22.82;53.83;92975.63;4849714;29;20052;-92
2021/09/05 12:23:53;;;;;;;2.20;1.50;;;;;;;22.79;52.40;92968.34;4831568;29;20050;-89
2021/09/05 12:26:29;;;;;;;;;;;;;;;;;;;;;
2021/09/05 12:32:21;;;;;;;4.35;2.50;;;;;;;23.38;52.16;93009.94;4848964;29;19920;-90
2021/09/05 12:35:14;;;;;;;3.08;2.22;;;;;;;23.20;53.24;92960.75;4843378;29;20053;-90
2021/09/05 12:38:47;;;;;;;8.93;2.85;;;;;;;22.56;53.00;92973.56;4853330;29;20057;-90
2021/09/05 12:41:47;;;;;;;6.15;3.00;;;;;;;22.29;54.36;92965.38;4841778;29;20049;-89
2021/09/05 12:45:07;;;;;;;;;;;;;;;;;;;;;
2021/09/05 12:48:05;;;;;;;6.18;2.45;;;;;;;23.56;51.56;92972.09;4853721;29;20122;-90
2021/09/05 12:51:12;;;;;;;;;;;;;;;;;;;;;
2021/09/05 12:53:58;;;;;;;3.65;2.25;;;;;;;22.86;52.27;92992.50;4840242;29;20049;-90
2021/09/05 12:57:12;;;;;;;3.85;2.33;;;;;;;22.53;54.12;93007.03;4854204;29;20659;-89
2021/09/05 13:00:11;;;;;;;;;;;;;;;;;;;;;
2021/09/05 13:03:18;;;;;;;3.95;2.45;;;;;;;21.59;54.61;92952.66;4856991;29;20053;-89
2021/09/05 13:06:10;;;;;;;4.57;3.10;;;;;;;22.20;53.84;92936.22;4843091;29;20056;-90
2021/09/05 13:09:07;;;;;;;;;;;;;;;;;;;;;
2021/09/05 13:11:38;;;;;;;5.43;3.20;;;;;;;23.21;51.84;92960.38;4858726;29;20128;-91
2021/09/05 13:14:40;;;;;;;6.00;3.75;;;;;;;23.14;53.02;92940.81;4858037;29;20060;-90
2021/09/05 13:18:00;;;;;;;5.20;3.28;;;;;;;23.32;51.66;92930.44;4858441;29;20073;-91
2021/09/05 13:24:27;;;;;;;4.07;2.60;;;;;;;23.10;51.90;92939.97;4873674;29;20208;-89
2021/09/05 13:27:21;;;;;;;4.57;2.60;;;;;;;22.51;53.54;92953.25;4830074;29;20041;-90
2021/09/05 13:29:55;;;;;;;4.47;2.58;;;;;;;22.44;53.92;92961.13;4829456;29;20086;-91
2021/09/05 13:32:29;;;;;;;5.68;2.80;;;;;;;23.04;52.78;92950.16;4839687;29;20116;-90
2021/09/05 13:35:22;;;;;;;5.30;2.97;;;;;;;23.19;52.16;92929.81;4844535;29;20431;-90
2021/09/05 13:38:37;;;;;;;;;;;;;;;;;;;;;
2021/09/05 13:41:51;;;;;;;3.25;2.20;;;;;;;23.80;49.58;92918.31;4858887;29;20052;-90
2021/09/05 13:44:46;;;;;;;3.40;2.30;;;;;;;23.29;48.70;92918.56;4858407;29;20056;-90
2021/09/05 13:48:05;;;;;;;4.15;2.33;;;;;;;23.30;48.35;92965.50;4857790;29;20077;-90
2021/09/05 13:51:11;;;;;;;4.97;2.97;;;;;;;23.39;51.07;92947.34;4820429;29;20045;-90
2021/09/05 13:54:11;;;;;;;4.10;2.50;;;;;;;23.53;50.73;92917.47;4856890;29;20052;-90
2021/09/05 13:56:50;;;;;;;;;;;;;;;;;;;;;
2021/09/05 14:02:47;;;;;;;5.63;2.42;;;;;;;23.38;49.97;92907.66;4828146;29;20065;-89
2021/09/05 14:06:02;;;;;;;4.40;2.72;;;;;;;23.70;49.35;92913.53;4857761;29;20046;-90
2021/09/05 14:09:00;;;;;;;4.88;3.10;;;;;;;23.72;49.47;92915.84;4838669;29;20050;-90
2021/09/05 14:11:42;;;;;;;4.75;2.83;;;;;;;23.31;51.22;92950.28;4825964;29;20583;-90
2021/09/05 14:14:42;;;;;;;;;;;;;;;;;;;;;
2021/09/05 14:17:34;;;;;;;4.32;2.72;;;;;;;22.96;51.11;92901.16;4857848;29;20052;-91
2021/09/05 14:23:31;;;;;;;4.97;2.97;;;;;;;22.56;52.59;92897.00;4837942;29;20096;-90
2021/09/05 14:26:21;;;;;;;3.97;2.47;;;;;;;22.41;52.53;92953.81;4842630;29;20492;-89
2021/09/05 14:29:36;;;;;;;6.68;2.97;;;;;;;22.61;52.36;92901.28;4830047;29;20511;-90
2021/09/05 14:55:10;;;;;;;;;;;;;;;;;;;;;
2021/09/05 14:58:15;;;;;;;3.97;2.35;;;;;;;23.38;52.92;92959.19;4860838;29;20058;-92
2021/09/05 15:13:31;;;;;;;6.63;3.20;;;;;;;23.64;50.38;92914.94;4847545;29;20138;-89
2021/09/05 15:16:46;;;;;;;;;;;;;;;;;;;;;
2021/09/05 15:19:29;;;;;;;5.60;3.08;;;;;;;23.25;51.27;92920.41;4860328;29;20042;-89
2021/09/05 15:22:24;;;;;;;;;;;;;;;;;;;;;
2021/09/05 15:25:48;;;;;;;5.22;2.75;;;;;;;23.00;52.38;92911.94;4849324;29;20393;-89
2021/09/05 15:54:31;;;;;;;5.90;3.58;;;;;;;23.89;48.68;92937.53;4823552;29;20046;-89
2021/09/05 15:57:50;;;;;;;4.63;3.00;;;;;;;23.76;49.79;92951.44;4823090;29;20044;-89
2021/09/05 16:00:42;;;;;;;4.72;2.67;;;;;;;23.47;49.60;92922.31;4807299;29;20046;-89
2021/09/05 16:16:52;;;;;;;5.20;2.60;;;;;;;23.51;50.82;92956.31;4837148;29;20792;-93
2021/09/05 16:22:55;;;;;;;5.18;2.95;;;;;;;23.36;49.78;92948.06;4802924;29;20132;-93
2021/09/05 16:25:56;;;;;;;4.40;2.60;;;;;;;23.26;51.01;92943.34;4837506;29;20046;-92
2021/09/05 16:28:56;;;;;;;6.47;3.70;;;;;;;23.47;50.09;92985.66;4820971;29;20256;-94
2021/09/05 16:31:47;;;;;;;5.05;3.03;;;;;;;23.17;49.81;92937.41;4836246;29;20437;-94
2021/09/05 16:41:03;;;;;;;4.50;2.78;;;;;;;22.61;52.07;92963.41;4833054;29;20496;-92
2021/09/05 16:44:10;;;;;;;4.55;2.97;;;;;;;22.08;54.74;92941.63;4846332;29;20045;-92
2021/09/05 16:47:32;;;;;;;;;;;;;;;;;;;;;
2021/09/05 16:50:51;;;;;;;;;;;;;;;;;;;;;
2021/09/05 16:54:00;;;;;;;5.72;3.00;;;;;;;21.50;53.16;92954.72;4848090;29;20049;-92
2021/09/05 16:56:29;;;;;;;5.03;2.95;;;;;;;21.19;55.99;92953.56;4846049;29;20041;-92
2021/09/05 16:59:41;;;;;;;5.65;2.88;;;;;;;21.19;56.23;92961.53;4841059;29;20045;-91
2021/09/05 17:02:35;;;;;;;7.22;3.70;;;;;;;21.16;57.29;92956.88;4855873;29;20050;-93
2021/09/05 17:05:46;;;;;;;7.35;3.20;;;;;;;21.09;55.82;92960.13;4837104;29;20088;-92
2021/09/05 17:08:28;;;;;;;4.85;2.80;;;;;;;21.06;57.40;92968.81;4842827;29;20541;-92
2021/09/05 17:11:41;;;;;;;6.22;3.28;;;;;;;20.97;58.40;92965.50;4840479;29;20046;-93
2021/09/05 17:14:38;;;;;;;4.50;2.60;;;;;;;21.06;59.04;92989.31;4837132;29;20057;-94
2021/09/05 17:17:35;;;;;;;5.05;2.97;;;;;;;20.74;59.35;92968.69;4850453;29;20042;-92
2021/09/05 17:20:41;;;;;;;;;;;;;;;;;;;;;
2021/09/05 17:24:04;;;;;;;5.20;2.70;;;;;;;20.42;58.95;92962.41;4854330;29;20060;-91
2021/09/05 17:27:03;;;;;;;;;;;;;;;;;;;;;
2021/09/05 17:30:00;;;;;;;4.28;2.60;;;;;;;20.34;60.50;92981.94;4835545;29;20122;-93
2021/09/05 17:43:02;;;;;;;5.15;3.00;;;;;;;20.03;61.78;93030.34;4813282;29;20049;-92
2021/09/05 18:09:42;;;;;;;4.97;2.78;;;;;;;19.19;64.04;93057.13;4630159;24;20277;-77
2021/09/05 18:12:10;;;;;;;5.70;3.22;;;;;;;19.11;64.47;93053.44;4816710;29;20050;-76
2021/09/05 18:14:35;;;;;;;5.22;2.90;;;;;;;19.05;64.92;93063.47;4805104;29;20053;-78
2021/09/05 18:17:02;;;;;;;4.20;2.50;;;;;;;18.95;65.03;93058.56;4790325;29;20516;-78
2021/09/05 18:19:29;;;;;;;7.30;3.45;;;;;;;18.96;65.19;93064.63;4816728;29;20042;-78
2021/09/05 18:21:55;;;;;;;5.70;2.97;;;;;;;18.91;65.29;93074.34;4799191;29;20053;-78
2021/09/05 18:24:23;;;;;;;6.68;3.38;;;;;;;18.87;65.48;93070.03;4806658;29;20047;-77
2021/09/05 18:26:52;;;;;;;5.93;3.53;;;;;;;18.82;65.48;93076.25;4818153;29;20046;-77